sensor_id;sensor_type;location;lat;lon;timestamp;temperature;humidity
53802;DHT22;39709;53.334;6.534;2023-04-01T00:00:17;10.20;99.90
53802;DHT22;39709;53.334;6.534;2023-04-01T00:02:43;11.00;99.90
53802;DHT22;39709;53.334;6.534;2023-04-01T00:05:10;10.50;99.90
53802;DHT22;39709;53.334;6.534;2023-04-01T00:07:36;10.20;99.90
53802;DHT22;39709;53.334;6.534;2023-04-01T00:10:04;10.30;99.90
53802;DHT22;39709;53.334;6.534;2023-04-01T00:12:30;11.30;99.90
53802;DHT22;39709;53.334;6.534;2023-04-01T00:14:55;11.20;99.90
53802;DHT22;39709;53.334;6.534;2023-04-01T00:17:21;11.10;99.90
53802;DHT22;39709;53.334;6.534;2023-04-01T00:19:48;10.70;99.90
53802;DHT22;39709;53.334;6.534;2023-04-01T00:22:13;10.90;99.90
53802;DHT22;39709;53.334;6.534;2023-04-01T00:24:39;10.60;99.90
53802;DHT22;39709;53.334;6.534;2023-04-01T00:27:05;10.60;99.90
53802;DHT22;39709;53.334;6.534;2023-04-01T00:29:31;10.80;99.90
53802;DHT22;39709;53.334;6.534;2023-04-01T00:31:58;10.40;99.90
53802;DHT22;39709;53.334;6.534;2023-04-01T00:34:24;11.10;99.90
53802;DHT22;39709;53.334;6.534;2023-04-01T00:36:53;11.10;99.90
53802;DHT22;39709;53.334;6.534;2023-04-01T00:39:20;10.60;99.90
53802;DHT22;39709;53.334;6.534;2023-04-01T00:41:47;11.20;99.90
53802;DHT22;39709;53.334;6.534;2023-04-01T00:46:44;10.60;99.90
53802;DHT22;39709;53.334;6.534;2023-04-01T00:49:10;10.50;99.90
53802;DHT22;39709;53.334;6.534;2023-04-01T00:51:37;10.30;99.90
53802;DHT22;39709;53.334;6.534;2023-04-01T00:54:04;11.10;99.90
53802;DHT22;39709;53.334;6.534;2023-04-01T00:56:34;10.40;99.90
53802;DHT22;39709;53.334;6.534;2023-04-01T00:59:07;11.30;99.90
53802;DHT22;39709;53.334;6.534;2023-04-01T01:01:35;10.50;99.90
53802;DHT22;39709;53.334;6.534;2023-04-01T01:04:01;11.30;99.90
53802;DHT22;39709;53.334;6.534;2023-04-01T01:09:28;10.00;99.90
53802;DHT22;39709;53.334;6.534;2023-04-01T01:11:59;10.60;99.90
53802;DHT22;39709;53.334;6.534;2023-04-01T01:20:29;10.40;99.90
53802;DHT22;39709;53.334;6.534;2023-04-01T01:29:08;11.10;99.90
53802;DHT22;39709;53.334;6.534;2023-04-01T01:37:30;10.40;99.90
53802;DHT22;39709;53.334;6.534;2023-04-01T01:40:05;10.60;99.90
53802;DHT22;39709;53.334;6.534;2023-04-01T01:42:33;11.10;99.90
53802;DHT22;39709;53.334;6.534;2023-04-01T01:45:02;10.60;99.90
53802;DHT22;39709;53.334;6.534;2023-04-01T01:47:29;10.50;99.90
53802;DHT22;39709;53.334;6.534;2023-04-01T01:49:55;11.20;99.90
53802;DHT22;39709;53.334;6.534;2023-04-01T01:52:23;11.30;99.90
53802;DHT22;39709;53.334;6.534;2023-04-01T01:54:53;10.50;99.90
53802;DHT22;39709;53.334;6.534;2023-04-01T01:57:24;10.70;99.90
53802;DHT22;39709;53.334;6.534;2023-04-01T01:59:54;10.60;99.90
53802;DHT22;39709;53.334;6.534;2023-04-01T02:02:22;10.50;99.90
53802;DHT22;39709;53.334;6.534;2023-04-01T02:04:49;11.10;99.90
53802;DHT22;39709;53.334;6.534;2023-04-01T02:07:23;10.80;99.90
53802;DHT22;39709;53.334;6.534;2023-04-01T02:09:50;11.20;99.90
53802;DHT22;39709;53.334;6.534;2023-04-01T02:12:19;10.80;99.90
53802;DHT22;39709;53.334;6.534;2023-04-01T02:14:59;10.30;99.90
53802;DHT22;39709;53.334;6.534;2023-04-01T02:17:29;10.30;99.90
53802;DHT22;39709;53.334;6.534;2023-04-01T02:20:08;11.20;99.90
53802;DHT22;39709;53.334;6.534;2023-04-01T02:25:36;10.30;99.90
53802;DHT22;39709;53.334;6.534;2023-04-01T02:28:04;10.40;99.90
53802;DHT22;39709;53.334;6.534;2023-04-01T02:30:34;10.30;99.90
53802;DHT22;39709;53.334;6.534;2023-04-01T02:33:01;10.50;99.90
53802;DHT22;39709;53.334;6.534;2023-04-01T02:35:28;10.40;99.90
53802;DHT22;39709;53.334;6.534;2023-04-01T02:37:55;10.30;99.90
53802;DHT22;39709;53.334;6.534;2023-04-01T02:40:21;11.20;99.90
53802;DHT22;39709;53.334;6.534;2023-04-01T02:42:47;11.10;99.90
53802;DHT22;39709;53.334;6.534;2023-04-01T02:45:14;10.30;99.90
53802;DHT22;39709;53.334;6.534;2023-04-01T02:47:40;11.00;99.90
53802;DHT22;39709;53.334;6.534;2023-04-01T02:50:06;10.60;99.90
53802;DHT22;39709;53.334;6.534;2023-04-01T02:52:32;11.10;99.90
53802;DHT22;39709;53.334;6.534;2023-04-01T02:54:58;10.20;99.90
53802;DHT22;39709;53.334;6.534;2023-04-01T02:57:25;10.80;99.90
53802;DHT22;39709;53.334;6.534;2023-04-01T02:59:51;10.60;99.90
53802;DHT22;39709;53.334;6.534;2023-04-01T03:02:17;10.90;99.90
53802;DHT22;39709;53.334;6.534;2023-04-01T03:04:42;10.90;99.90
53802;DHT22;39709;53.334;6.534;2023-04-01T03:07:09;10.10;99.90
53802;DHT22;39709;53.334;6.534;2023-04-01T03:09:38;10.00;99.90
53802;DHT22;39709;53.334;6.534;2023-04-01T03:12:04;10.30;99.90
53802;DHT22;39709;53.334;6.534;2023-04-01T03:14:29;10.80;99.90
53802;DHT22;39709;53.334;6.534;2023-04-01T03:16:55;10.70;99.90
53802;DHT22;39709;53.334;6.534;2023-04-01T03:19:21;10.90;99.90
53802;DHT22;39709;53.334;6.534;2023-04-01T03:21:46;11.00;99.90
53802;DHT22;39709;53.334;6.534;2023-04-01T03:24:12;10.90;99.90
53802;DHT22;39709;53.334;6.534;2023-04-01T03:26:38;10.20;99.90
53802;DHT22;39709;53.334;6.534;2023-04-01T03:29:03;10.80;99.90
53802;DHT22;39709;53.334;6.534;2023-04-01T03:31:30;10.10;99.90
53802;DHT22;39709;53.334;6.534;2023-04-01T03:33:55;10.30;99.90
53802;DHT22;39709;53.334;6.534;2023-04-01T03:36:21;11.00;99.90
53802;DHT22;39709;53.334;6.534;2023-04-01T03:38:47;10.60;99.90
53802;DHT22;39709;53.334;6.534;2023-04-01T03:41:14;10.90;99.90
53802;DHT22;39709;53.334;6.534;2023-04-01T03:43:40;10.60;99.90
53802;DHT22;39709;53.334;6.534;2023-04-01T03:46:06;10.20;99.90
53802;DHT22;39709;53.334;6.534;2023-04-01T03:48:32;10.30;99.90
53802;DHT22;39709;53.334;6.534;2023-04-01T03:50:57;11.00;99.90
53802;DHT22;39709;53.334;6.534;2023-04-01T03:53:23;10.90;99.90
53802;DHT22;39709;53.334;6.534;2023-04-01T03:55:49;10.90;99.90
53802;DHT22;39709;53.334;6.534;2023-04-01T03:58:16;11.00;99.90
53802;DHT22;39709;53.334;6.534;2023-04-01T04:00:42;10.80;99.90
53802;DHT22;39709;53.334;6.534;2023-04-01T04:03:08;10.10;99.90
53802;DHT22;39709;53.334;6.534;2023-04-01T04:05:34;10.20;99.90
53802;DHT22;39709;53.334;6.534;2023-04-01T04:08:00;10.20;99.90
53802;DHT22;39709;53.334;6.534;2023-04-01T04:10:26;10.30;99.90
53802;DHT22;39709;53.334;6.534;2023-04-01T04:12:52;10.40;99.90
53802;DHT22;39709;53.334;6.534;2023-04-01T04:15:18;10.90;99.90
53802;DHT22;39709;53.334;6.534;2023-04-01T04:17:47;10.30;99.90
53802;DHT22;39709;53.334;6.534;2023-04-01T04:20:14;10.30;99.90
53802;DHT22;39709;53.334;6.534;2023-04-01T04:22:40;10.20;99.90
53802;DHT22;39709;53.334;6.534;2023-04-01T04:25:06;10.80;99.90
53802;DHT22;39709;53.334;6.534;2023-04-01T04:27:33;11.00;99.90
53802;DHT22;39709;53.334;6.534;2023-04-01T04:29:58;10.30;99.90
53802;DHT22;39709;53.334;6.534;2023-04-01T04:32:24;10.80;99.90
53802;DHT22;39709;53.334;6.534;2023-04-01T04:34:50;10.80;99.90
53802;DHT22;39709;53.334;6.534;2023-04-01T04:37:15;10.70;99.90
53802;DHT22;39709;53.334;6.534;2023-04-01T04:39:41;10.00;99.90
53802;DHT22;39709;53.334;6.534;2023-04-01T04:42:07;10.30;99.90
53802;DHT22;39709;53.334;6.534;2023-04-01T04:44:32;10.80;99.90
53802;DHT22;39709;53.334;6.534;2023-04-01T04:46:58;10.40;99.90
53802;DHT22;39709;53.334;6.534;2023-04-01T04:49:23;10.90;99.90
53802;DHT22;39709;53.334;6.534;2023-04-01T04:51:49;11.00;99.90
53802;DHT22;39709;53.334;6.534;2023-04-01T04:54:15;10.20;99.90
53802;DHT22;39709;53.334;6.534;2023-04-01T04:56:41;11.10;99.90
53802;DHT22;39709;53.334;6.534;2023-04-01T04:59:07;11.10;99.90
53802;DHT22;39709;53.334;6.534;2023-04-01T05:01:33;10.80;99.90
53802;DHT22;39709;53.334;6.534;2023-04-01T05:03:59;10.30;99.90
53802;DHT22;39709;53.334;6.534;2023-04-01T05:06:25;10.90;99.90
53802;DHT22;39709;53.334;6.534;2023-04-01T05:08:51;10.90;99.90
53802;DHT22;39709;53.334;6.534;2023-04-01T05:11:18;10.60;99.90
53802;DHT22;39709;53.334;6.534;2023-04-01T05:13:45;10.80;99.90
53802;DHT22;39709;53.334;6.534;2023-04-01T05:16:17;10.80;99.90
53802;DHT22;39709;53.334;6.534;2023-04-01T05:18:43;10.40;99.90
53802;DHT22;39709;53.334;6.534;2023-04-01T05:21:10;10.40;99.90
53802;DHT22;39709;53.334;6.534;2023-04-01T05:23:36;10.70;99.90
53802;DHT22;39709;53.334;6.534;2023-04-01T05:26:08;10.20;99.90
53802;DHT22;39709;53.334;6.534;2023-04-01T05:28:34;10.70;99.90
53802;DHT22;39709;53.334;6.534;2023-04-01T05:31:00;10.30;99.90
53802;DHT22;39709;53.334;6.534;2023-04-01T05:33:27;11.00;99.90
53802;DHT22;39709;53.334;6.534;2023-04-01T05:35:54;10.20;99.90
53802;DHT22;39709;53.334;6.534;2023-04-01T05:38:20;11.00;99.90
53802;DHT22;39709;53.334;6.534;2023-04-01T05:40:45;10.30;99.90
53802;DHT22;39709;53.334;6.534;2023-04-01T05:43:11;11.00;99.90
53802;DHT22;39709;53.334;6.534;2023-04-01T05:45:37;10.30;99.90
53802;DHT22;39709;53.334;6.534;2023-04-01T05:48:03;11.00;99.90
53802;DHT22;39709;53.334;6.534;2023-04-01T05:50:28;10.40;99.90
53802;DHT22;39709;53.334;6.534;2023-04-01T05:52:54;10.40;99.90
53802;DHT22;39709;53.334;6.534;2023-04-01T05:55:20;10.40;99.90
53802;DHT22;39709;53.334;6.534;2023-04-01T05:57:46;11.00;99.90
53802;DHT22;39709;53.334;6.534;2023-04-01T06:00:14;10.50;99.90
53802;DHT22;39709;53.334;6.534;2023-04-01T06:02:40;10.80;99.90
53802;DHT22;39709;53.334;6.534;2023-04-01T06:05:20;10.40;99.90
53802;DHT22;39709;53.334;6.534;2023-04-01T06:07:46;11.10;99.90
53802;DHT22;39709;53.334;6.534;2023-04-01T06:10:19;10.70;99.90
53802;DHT22;39709;53.334;6.534;2023-04-01T06:12:52;11.20;99.90
53802;DHT22;39709;53.334;6.534;2023-04-01T06:18:41;11.30;99.90
53802;DHT22;39709;53.334;6.534;2023-04-01T06:21:35;10.50;99.90
53802;DHT22;39709;53.334;6.534;2023-04-01T06:26:58;11.30;99.90
53802;DHT22;39709;53.334;6.534;2023-04-01T06:32:26;11.40;99.90
53802;DHT22;39709;53.334;6.534;2023-04-01T06:40:41;11.20;99.90
53802;DHT22;39709;53.334;6.534;2023-04-01T06:43:13;11.10;99.90
53802;DHT22;39709;53.334;6.534;2023-04-01T06:45:48;10.60;99.90
53802;DHT22;39709;53.334;6.534;2023-04-01T06:53:55;11.40;99.90
53802;DHT22;39709;53.334;6.534;2023-04-01T06:56:26;11.20;99.90
53802;DHT22;39709;53.334;6.534;2023-04-01T07:01:41;11.30;99.90
53802;DHT22;39709;53.334;6.534;2023-04-01T07:04:22;10.80;99.90
53802;DHT22;39709;53.334;6.534;2023-04-01T07:06:56;11.10;99.90
53802;DHT22;39709;53.334;6.534;2023-04-01T07:09:27;11.30;99.90
53802;DHT22;39709;53.334;6.534;2023-04-01T07:12:10;11.00;99.90
53802;DHT22;39709;53.334;6.534;2023-04-01T07:14:40;11.30;99.90
53802;DHT22;39709;53.334;6.534;2023-04-01T07:17:28;11.70;99.90
53802;DHT22;39709;53.334;6.534;2023-04-01T07:22:32;11.10;99.90
53802;DHT22;39709;53.334;6.534;2023-04-01T07:25:05;11.00;99.90
53802;DHT22;39709;53.334;6.534;2023-04-01T07:27:33;11.10;99.90
53802;DHT22;39709;53.334;6.534;2023-04-01T07:30:01;11.60;99.90
53802;DHT22;39709;53.334;6.534;2023-04-01T07:38:26;11.70;99.90
53802;DHT22;39709;53.334;6.534;2023-04-01T07:48:51;11.30;99.90
53802;DHT22;39709;53.334;6.534;2023-04-01T07:51:29;11.40;99.90
53802;DHT22;39709;53.334;6.534;2023-04-01T07:56:55;11.10;99.90
53802;DHT22;39709;53.334;6.534;2023-04-01T08:04:51;11.00;99.90
53802;DHT22;39709;53.334;6.534;2023-04-01T08:07:27;11.00;99.90
53802;DHT22;39709;53.334;6.534;2023-04-01T08:10:04;11.00;99.90
53802;DHT22;39709;53.334;6.534;2023-04-01T08:15:57;10.50;99.90
53802;DHT22;39709;53.334;6.534;2023-04-01T08:21:16;10.30;99.90
53802;DHT22;39709;53.334;6.534;2023-04-01T08:23:51;10.30;99.90
53802;DHT22;39709;53.334;6.534;2023-04-01T08:28:54;10.70;99.90
53802;DHT22;39709;53.334;6.534;2023-04-01T08:31:31;11.20;99.90
53802;DHT22;39709;53.334;6.534;2023-04-01T08:34:02;11.40;99.90
53802;DHT22;39709;53.334;6.534;2023-04-01T08:36:34;11.60;99.90
53802;DHT22;39709;53.334;6.534;2023-04-01T08:47:24;11.30;99.90
53802;DHT22;39709;53.334;6.534;2023-04-01T08:50:23;11.30;99.90
53802;DHT22;39709;53.334;6.534;2023-04-01T08:53:03;11.30;99.90
53802;DHT22;39709;53.334;6.534;2023-04-01T09:01:17;11.80;99.90
53802;DHT22;39709;53.334;6.534;2023-04-01T09:12:15;11.60;99.90
53802;DHT22;39709;53.334;6.534;2023-04-01T09:37:18;11.70;99.90
53802;DHT22;39709;53.334;6.534;2023-04-01T09:53:25;11.30;99.90
53802;DHT22;39709;53.334;6.534;2023-04-01T09:56:05;11.40;99.90
53802;DHT22;39709;53.334;6.534;2023-04-01T10:08:10;12.00;99.90
53802;DHT22;39709;53.334;6.534;2023-04-01T10:52:52;11.30;99.90
53802;DHT22;39709;53.334;6.534;2023-04-01T11:01:22;12.00;99.90
53802;DHT22;39709;53.334;6.534;2023-04-01T11:18:30;11.90;99.90
53802;DHT22;39709;53.334;6.534;2023-04-01T11:24:17;12.00;99.90
53802;DHT22;39709;53.334;6.534;2023-04-01T11:30:15;11.50;99.90
53802;DHT22;39709;53.334;6.534;2023-04-01T11:32:50;11.60;99.90
53802;DHT22;39709;53.334;6.534;2023-04-01T11:38:33;12.10;99.90
53802;DHT22;39709;53.334;6.534;2023-04-01T11:41:07;12.10;99.90
53802;DHT22;39709;53.334;6.534;2023-04-01T11:48:55;11.90;99.90
53802;DHT22;39709;53.334;6.534;2023-04-01T11:51:55;12.10;99.90
53802;DHT22;39709;53.334;6.534;2023-04-01T12:03:21;12.10;99.90
53802;DHT22;39709;53.334;6.534;2023-04-01T12:09:01;11.80;99.90
53802;DHT22;39709;53.334;6.534;2023-04-01T12:14:33;11.80;99.90
53802;DHT22;39709;53.334;6.534;2023-04-01T12:17:46;12.20;99.90
53802;DHT22;39709;53.334;6.534;2023-04-01T12:28:57;12.20;99.90
53802;DHT22;39709;53.334;6.534;2023-04-01T12:32:06;11.80;99.90
53802;DHT22;39709;53.334;6.534;2023-04-01T12:57:27;12.30;99.90
53802;DHT22;39709;53.334;6.534;2023-04-01T13:11:27;12.00;99.90
53802;DHT22;39709;53.334;6.534;2023-04-01T13:14:17;11.80;99.90
53802;DHT22;39709;53.334;6.534;2023-04-01T13:16:53;12.00;99.90
53802;DHT22;39709;53.334;6.534;2023-04-01T13:19:36;11.80;99.90
53802;DHT22;39709;53.334;6.534;2023-04-01T13:22:34;11.80;99.90
53802;DHT22;39709;53.334;6.534;2023-04-01T13:27:44;11.80;99.90
53802;DHT22;39709;53.334;6.534;2023-04-01T13:30:27;11.60;99.90
53802;DHT22;39709;53.334;6.534;2023-04-01T13:33:27;12.00;99.90
53802;DHT22;39709;53.334;6.534;2023-04-01T13:41:51;11.60;99.90
53802;DHT22;39709;53.334;6.534;2023-04-01T13:47:04;12.00;99.90
53802;DHT22;39709;53.334;6.534;2023-04-01T13:50:17;11.70;99.90
53802;DHT22;39709;53.334;6.534;2023-04-01T13:52:49;11.50;99.90
53802;DHT22;39709;53.334;6.534;2023-04-01T14:04:03;11.80;99.90
53802;DHT22;39709;53.334;6.534;2023-04-01T14:20:13;11.50;99.90
53802;DHT22;39709;53.334;6.534;2023-04-01T14:25:41;11.60;99.90
53802;DHT22;39709;53.334;6.534;2023-04-01T14:42:36;11.30;99.90
53802;DHT22;39709;53.334;6.534;2023-04-01T14:48:17;11.20;99.90
53802;DHT22;39709;53.334;6.534;2023-04-01T14:50:49;11.00;99.90
53802;DHT22;39709;53.334;6.534;2023-04-01T14:53:26;11.10;99.90
53802;DHT22;39709;53.334;6.534;2023-04-01T14:55:55;11.00;99.90
53802;DHT22;39709;53.334;6.534;2023-04-01T14:58:24;11.30;99.90
53802;DHT22;39709;53.334;6.534;2023-04-01T15:01:02;10.90;99.90
53802;DHT22;39709;53.334;6.534;2023-04-01T15:06:37;10.70;99.90
53802;DHT22;39709;53.334;6.534;2023-04-01T15:31:26;10.60;99.90
53802;DHT22;39709;53.334;6.534;2023-04-01T15:39:56;9.80;99.90
53802;DHT22;39709;53.334;6.534;2023-04-01T15:45:40;10.20;99.90
53802;DHT22;39709;53.334;6.534;2023-04-01T15:48:31;10.50;99.90
53802;DHT22;39709;53.334;6.534;2023-04-01T16:02:31;10.10;99.90
53802;DHT22;39709;53.334;6.534;2023-04-01T16:16:14;10.20;99.90
53802;DHT22;39709;53.334;6.534;2023-04-01T16:22:34;10.60;99.90
53802;DHT22;39709;53.334;6.534;2023-04-01T16:30:33;9.80;99.90
53802;DHT22;39709;53.334;6.534;2023-04-01T16:33:21;10.20;99.90
53802;DHT22;39709;53.334;6.534;2023-04-01T16:36:00;9.90;99.90
53802;DHT22;39709;53.334;6.534;2023-04-01T16:38:38;9.80;99.90
53802;DHT22;39709;53.334;6.534;2023-04-01T16:41:20;9.50;99.90
53802;DHT22;39709;53.334;6.534;2023-04-01T16:43:53;9.40;99.90
53802;DHT22;39709;53.334;6.534;2023-04-01T16:49:33;9.60;99.90
53802;DHT22;39709;53.334;6.534;2023-04-01T16:55:43;9.80;99.90
53802;DHT22;39709;53.334;6.534;2023-04-01T16:57:57;9.50;99.90
53802;DHT22;39709;53.334;6.534;2023-04-01T17:00:31;9.70;99.90
53802;DHT22;39709;53.334;6.534;2023-04-01T17:03:13;9.80;99.90
53802;DHT22;39709;53.334;6.534;2023-04-01T17:05:50;9.80;99.90
53802;DHT22;39709;53.334;6.534;2023-04-01T17:08:28;9.60;99.90
53802;DHT22;39709;53.334;6.534;2023-04-01T17:11:19;9.40;99.90
53802;DHT22;39709;53.334;6.534;2023-04-01T17:22:06;9.70;99.90
53802;DHT22;39709;53.334;6.534;2023-04-01T17:24:38;9.20;99.90
53802;DHT22;39709;53.334;6.534;2023-04-01T17:35:48;9.30;99.90
53802;DHT22;39709;53.334;6.534;2023-04-01T17:38:40;9.40;99.90
53802;DHT22;39709;53.334;6.534;2023-04-01T17:43:51;9.60;99.90
53802;DHT22;39709;53.334;6.534;2023-04-01T17:49:30;9.30;99.90
53802;DHT22;39709;53.334;6.534;2023-04-01T17:52:19;9.50;99.90
53802;DHT22;39709;53.334;6.534;2023-04-01T17:55:15;9.10;99.90
53802;DHT22;39709;53.334;6.534;2023-04-01T17:57:56;9.40;99.90
53802;DHT22;39709;53.334;6.534;2023-04-01T18:00:29;9.30;99.90
53802;DHT22;39709;53.334;6.534;2023-04-01T18:21:48;8.90;99.90
53802;DHT22;39709;53.334;6.534;2023-04-01T18:27:01;9.20;99.90
53802;DHT22;39709;53.334;6.534;2023-04-01T18:40:12;9.00;99.90
53802;DHT22;39709;53.334;6.534;2023-04-01T18:42:53;8.70;99.90
53802;DHT22;39709;53.334;6.534;2023-04-01T18:45:27;9.00;99.90
53802;DHT22;39709;53.334;6.534;2023-04-01T18:50:52;8.90;99.90
53802;DHT22;39709;53.334;6.534;2023-04-01T18:53:41;8.40;99.90
53802;DHT22;39709;53.334;6.534;2023-04-01T18:56:11;8.50;99.90
53802;DHT22;39709;53.334;6.534;2023-04-01T18:59:04;8.50;99.90
53802;DHT22;39709;53.334;6.534;2023-04-01T19:04:33;8.50;99.90
53802;DHT22;39709;53.334;6.534;2023-04-01T19:07:42;8.60;99.90
53802;DHT22;39709;53.334;6.534;2023-04-01T19:10:40;9.00;99.90
53802;DHT22;39709;53.334;6.534;2023-04-01T19:13:52;8.90;99.90
53802;DHT22;39709;53.334;6.534;2023-04-01T19:18:55;8.80;99.90
53802;DHT22;39709;53.334;6.534;2023-04-01T19:24:12;8.50;99.90
53802;DHT22;39709;53.334;6.534;2023-04-01T19:32:43;8.90;99.90
53802;DHT22;39709;53.334;6.534;2023-04-01T19:35:29;8.80;99.90
53802;DHT22;39709;53.334;6.534;2023-04-01T19:46:37;8.10;99.90
53802;DHT22;39709;53.334;6.534;2023-04-01T19:59:56;7.80;99.90
53802;DHT22;39709;53.334;6.534;2023-04-01T20:08:07;8.20;99.90
53802;DHT22;39709;53.334;6.534;2023-04-01T20:10:49;7.80;99.90
53802;DHT22;39709;53.334;6.534;2023-04-01T20:16:15;8.10;99.90
53802;DHT22;39709;53.334;6.534;2023-04-01T20:18:59;7.80;99.90
53802;DHT22;39709;53.334;6.534;2023-04-01T20:21:37;7.90;99.90
53802;DHT22;39709;53.334;6.534;2023-04-01T20:24:23;8.20;99.90
53802;DHT22;39709;53.334;6.534;2023-04-01T20:27:18;7.90;99.90
53802;DHT22;39709;53.334;6.534;2023-04-01T20:36:12;8.20;99.90
53802;DHT22;39709;53.334;6.534;2023-04-01T20:41:11;7.90;99.90
53802;DHT22;39709;53.334;6.534;2023-04-01T20:52:56;7.90;99.90
53802;DHT22;39709;53.334;6.534;2023-04-01T20:55:56;7.30;99.90
53802;DHT22;39709;53.334;6.534;2023-04-01T20:58:56;7.80;99.90
53802;DHT22;39709;53.334;6.534;2023-04-01T21:17:58;7.60;99.90
53802;DHT22;39709;53.334;6.534;2023-04-01T21:29:30;7.30;99.90
53802;DHT22;39709;53.334;6.534;2023-04-01T21:35:08;7.70;99.90
53802;DHT22;39709;53.334;6.534;2023-04-01T21:37:58;7.90;99.90
53802;DHT22;39709;53.334;6.534;2023-04-01T21:46:10;7.20;99.90
53802;DHT22;39709;53.334;6.534;2023-04-01T21:54:30;7.60;99.90
53802;DHT22;39709;53.334;6.534;2023-04-01T22:14:01;7.10;99.90
53802;DHT22;39709;53.334;6.534;2023-04-01T22:16:53;7.40;99.90
53802;DHT22;39709;53.334;6.534;2023-04-01T22:19:40;6.80;99.90
53802;DHT22;39709;53.334;6.534;2023-04-01T22:22:15;7.50;99.90
53802;DHT22;39709;53.334;6.534;2023-04-01T22:28:07;7.20;99.90
53802;DHT22;39709;53.334;6.534;2023-04-01T22:30:39;6.40;99.90
53802;DHT22;39709;53.334;6.534;2023-04-01T22:35:59;6.40;99.90
53802;DHT22;39709;53.334;6.534;2023-04-01T22:43:47;6.40;99.90
53802;DHT22;39709;53.334;6.534;2023-04-01T22:48:46;6.40;99.90
53802;DHT22;39709;53.334;6.534;2023-04-01T22:54:07;6.70;99.90
53802;DHT22;39709;53.334;6.534;2023-04-01T22:56:44;6.70;99.90
53802;DHT22;39709;53.334;6.534;2023-04-01T22:59:24;6.40;99.90
53802;DHT22;39709;53.334;6.534;2023-04-01T23:01:57;6.60;99.90
53802;DHT22;39709;53.334;6.534;2023-04-01T23:04:31;6.40;99.90
53802;DHT22;39709;53.334;6.534;2023-04-01T23:07:00;6.40;99.90
53802;DHT22;39709;53.334;6.534;2023-04-01T23:09:32;6.60;99.90
53802;DHT22;39709;53.334;6.534;2023-04-01T23:33:20;6.30;99.90
53802;DHT22;39709;53.334;6.534;2023-04-01T23:35:50;6.10;99.90
53802;DHT22;39709;53.334;6.534;2023-04-01T23:38:18;6.30;99.90
53802;DHT22;39709;53.334;6.534;2023-04-01T23:40:49;6.00;99.90
53802;DHT22;39709;53.334;6.534;2023-04-01T23:43:36;6.10;99.90
53802;DHT22;39709;53.334;6.534;2023-04-01T23:46:05;6.20;99.90
53802;DHT22;39709;53.334;6.534;2023-04-01T23:48:39;6.30;99.90
53802;DHT22;39709;53.334;6.534;2023-04-01T23:51:20;6.00;99.90
53802;DHT22;39709;53.334;6.534;2023-04-01T23:54:02;6.10;99.90
53802;DHT22;39709;53.334;6.534;2023-04-01T23:56:38;6.10;99.90
53802;DHT22;39709;53.334;6.534;2023-04-01T23:59:16;6.30;99.90
